Time;durP1;ratioP1;P1;durP2;ratioP2;P2;SDS_P1;SDS_P2;PMS_P1;PMS_P2;Temp;Humidity;BMP_temperature;BMP_pressure;BME280_temperature;BME280_humidity;BME280_pressure;Samples;Min_cycle;Max_cycle;Signal;HPM_P1;HPM_P2
2023/07/14 00:01:21;;;;;;;7.00;3.10;;;;;;;12.22;100.00;100208.38;5104373;28;20039;-61
2023/07/14 00:03:52;;;;;;;5.03;3.22;;;;;;;12.23;100.00;100210.97;5094621;28;20519;-56
2023/07/14 00:06:24;;;;;;;5.13;2.83;;;;;;;12.27;100.00;100211.75;5104444;28;20126;-58
2023/07/14 00:08:55;;;;;;;3.90;2.90;;;;;;;12.34;100.00;100202.84;5093836;28;20051;-58
2023/07/14 00:11:26;;;;;;;4.75;3.50;;;;;;;12.48;100.00;100219.09;5104240;28;20042;-59
2023/07/14 00:13:57;;;;;;;5.85;2.58;;;;;;;12.21;100.00;100164.75;5094107;27;20096;-60
2023/07/14 00:16:31;;;;;;;3.53;2.75;;;;;;;12.66;100.00;100215.13;5107849;27;20399;-58
2023/07/14 00:19:02;;;;;;;5.18;2.58;;;;;;;12.80;100.00;100216.53;5098621;27;20055;-59
2023/07/14 00:21:34;;;;;;;6.18;3.05;;;;;;;12.90;100.00;100218.88;5108265;27;20407;-56
2023/07/14 00:24:11;;;;;;;5.10;2.80;;;;;;;12.94;100.00;100212.63;5080169;27;20452;-61
2023/07/14 00:26:43;;;;;;;4.43;2.65;;;;;;;12.95;100.00;100203.88;5078252;28;20285;-58
2023/07/14 00:29:32;;;;;;;4.00;2.58;;;;;;;13.13;100.00;100214.78;5089002;28;20470;-58
2023/07/14 00:32:03;;;;;;;6.15;2.40;;;;;;;13.28;100.00;100217.00;5078739;28;20126;-59
2023/07/14 00:34:33;;;;;;;2.97;2.30;;;;;;;13.32;100.00;100230.88;5092624;27;20052;-59
2023/07/14 00:37:06;;;;;;;3.95;2.88;;;;;;;13.36;100.00;100212.38;5077727;28;20150;-58
2023/07/14 00:39:36;;;;;;;2.97;2.17;;;;;;;13.49;100.00;100222.53;5088095;28;20115;-60
2023/07/14 00:42:12;;;;;;;3.80;2.67;;;;;;;13.64;100.00;100211.56;5088705;27;20422;-58
2023/07/14 00:44:43;;;;;;;3.30;2.50;;;;;;;13.77;100.00;100218.16;5096663;27;20057;-59
2023/07/14 00:47:20;;;;;;;3.80;2.55;;;;;;;13.76;99.89;100205.97;5107671;27;20150;-61
2023/07/14 00:49:52;;;;;;;3.70;2.60;;;;;;;13.79;99.85;100216.34;5096299;27;20073;-57
2023/07/14 00:52:31;;;;;;;2.93;2.50;;;;;;;13.99;100.00;100217.53;5107146;27;20760;-58
2023/07/14 00:55:10;;;;;;;3.78;2.50;;;;;;;13.90;99.42;100181.03;5097081;27;20283;-55
2023/07/14 00:57:41;;;;;;;3.03;2.33;;;;;;;14.14;97.57;100206.53;5096304;27;20462;-60
2023/07/14 01:00:26;;;;;;;5.87;2.43;;;;;;;14.20;96.98;100201.09;5107011;27;20121;-59
2023/07/14 01:02:56;;;;;;;2.90;2.57;;;;;;;14.30;98.37;100212.13;5096377;27;20280;-58
2023/07/14 01:05:28;;;;;;;5.20;2.33;;;;;;;14.28;96.01;100213.09;5107187;27;20689;-62
2023/07/14 01:08:01;;;;;;;4.50;2.30;;;;;;;14.28;98.41;100202.59;5096458;27;20454;-60
2023/07/14 01:10:32;;;;;;;6.80;2.50;;;;;;;14.36;98.08;100211.94;5106959;27;20305;-59
2023/07/14 01:13:06;;;;;;;3.30;2.40;;;;;;;14.52;97.38;100207.03;5096877;27;20265;-55
2023/07/14 01:15:39;;;;;;;6.07;2.60;;;;;;;14.70;93.97;100204.72;5107255;27;20303;-58
2023/07/14 01:18:12;;;;;;;4.70;2.50;;;;;;;14.29;95.22;100118.44;5080706;27;20277;-55
2023/07/14 01:20:43;;;;;;;5.27;2.63;;;;;;;14.86;94.54;100200.66;5078038;28;20307;-60
2023/07/14 01:23:27;;;;;;;3.63;2.00;;;;;;;14.87;92.73;100197.09;5087917;28;20269;-60
2023/07/14 01:26:15;;;;;;;3.83;2.63;;;;;;;14.90;94.33;100197.00;5077035;28;20273;-60
2023/07/14 01:28:47;;;;;;;5.37;2.77;;;;;;;15.07;94.42;100210.41;5077424;28;20273;-56
2023/07/14 01:31:21;;;;;;;3.50;2.50;;;;;;;14.86;93.58;100182.25;5087582;28;20285;-57
2023/07/14 01:33:53;;;;;;;4.17;2.90;;;;;;;14.92;92.66;100205.69;5080895;27;20374;-57
2023/07/14 01:36:25;;;;;;;3.67;2.30;;;;;;;14.97;92.25;100195.88;5087216;28;20292;-61
2023/07/14 01:38:56;;;;;;;4.10;2.37;;;;;;;15.34;94.18;100196.31;5089886;27;20301;-58
2023/07/14 01:41:27;;;;;;;4.70;2.57;;;;;;;15.51;91.77;100199.19;5087517;27;20799;-58
2023/07/14 01:44:04;;;;;;;4.63;2.70;;;;;;;15.57;94.51;100198.09;5076394;28;20284;-57
2023/07/14 01:46:35;;;;;;;4.87;2.40;;;;;;;15.82;92.71;100193.59;5086888;28;20307;-57
2023/07/14 01:49:18;;;;;;;3.93;2.33;;;;;;;15.37;89.70;100133.88;5076607;28;20291;-57
2023/07/14 01:51:51;;;;;;;3.40;2.80;;;;;;;15.79;91.95;100187.63;5076880;28;20274;-60
2023/07/14 01:54:29;;;;;;;3.37;2.37;;;;;;;15.80;90.63;100190.19;5087036;28;20301;-59
2023/07/14 01:57:03;;;;;;;3.27;2.40;;;;;;;15.91;87.77;100181.88;5076738;28;20749;-59
2023/07/14 01:59:38;;;;;;;5.20;2.50;;;;;;;15.62;89.88;100122.38;5086311;28;20313;-58
2023/07/14 02:02:14;;;;;;;4.73;2.30;;;;;;;16.28;87.65;100189.16;5075836;28;20720;-59
2023/07/14 02:04:46;;;;;;;4.47;2.43;;;;;;;16.38;87.01;100193.13;5076062;28;20285;-58
2023/07/14 02:07:17;;;;;;;6.70;2.50;;;;;;;16.27;86.55;100195.31;5086378;28;20288;-57
2023/07/14 02:09:48;;;;;;;6.07;2.30;;;;;;;16.26;88.31;100188.34;5076352;28;20294;-57
2023/07/14 02:12:28;;;;;;;3.87;2.73;;;;;;;16.31;86.73;100189.00;5086397;28;20288;-59
2023/07/14 02:15:04;;;;;;;5.37;2.30;;;;;;;16.32;84.76;100193.34;5089965;27;20252;-60
2023/07/14 02:17:37;;;;;;;16.53;3.40;;;;;;;16.39;85.52;100183.41;5086375;28;20277;-56
2023/07/14 02:20:18;;;;;;;7.10;3.10;;;;;;;16.60;87.80;100184.31;5075875;28;20315;-56
2023/07/14 02:22:50;;;;;;;30.57;8.33;;;;;;;16.78;88.52;100175.63;5076009;28;20293;-58
2023/07/14 02:25:23;;;;;;;4.37;2.27;;;;;;;16.96;86.41;100162.56;5086448;28;20313;-55
2023/07/14 02:27:53;;;;;;;5.07;2.53;;;;;;;17.16;86.69;100175.72;5076558;28;20288;-60
2023/07/14 02:30:27;;;;;;;4.43;2.27;;;;;;;17.21;82.57;100186.91;5086563;28;20372;-59
2023/07/14 02:33:02;;;;;;;5.93;2.07;;;;;;;17.13;85.20;100170.56;5079066;27;20285;-60
2023/07/14 02:35:37;;;;;;;3.00;2.00;;;;;;;17.31;83.16;100173.31;5084778;28;20313;-54
2023/07/14 02:38:13;;;;;;;7.27;2.30;;;;;;;17.14;84.62;100153.81;5083175;27;20368;-59
2023/07/14 02:40:49;;;;;;;4.37;1.97;;;;;;;17.38;84.82;100164.19;5094738;27;20663;-58
2023/07/14 02:43:22;;;;;;;5.70;2.57;;;;;;;17.58;84.69;100165.91;5105148;27;20305;-57
2023/07/14 02:45:56;;;;;;;5.70;2.67;;;;;;;17.63;81.63;100167.38;5095776;27;20716;-56
2023/07/14 02:48:32;;;;;;;16.10;4.03;;;;;;;17.81;82.31;100162.19;5105844;27;20277;-58
2023/07/14 02:51:04;;;;;;;6.37;2.03;;;;;;;17.29;79.19;100069.53;5094786;27;20273;-57
2023/07/14 02:53:35;;;;;;;3.30;1.80;;;;;;;17.86;79.70;100160.19;5123400;27;20291;-58
2023/07/14 02:56:06;;;;;;;4.67;1.70;;;;;;;17.97;81.49;100165.81;5112107;27;20261;-58
2023/07/14 02:58:37;;;;;;;9.90;2.07;;;;;;;18.04;79.32;100161.91;5110761;27;20316;-59
2023/07/14 03:01:09;;;;;;;6.10;2.10;;;;;;;18.06;77.72;100157.41;5102478;27;20606;-59
2023/07/14 03:03:40;;;;;;;2.37;1.57;;;;;;;18.11;79.82;100155.41;5102712;27;20342;-58
2023/07/14 03:06:13;;;;;;;6.30;1.80;;;;;;;18.21;78.13;100157.59;5112765;27;20272;-59
2023/07/14 03:08:43;;;;;;;4.63;1.47;;;;;;;18.29;77.79;100153.63;5101726;27;20367;-60
2023/07/14 03:11:14;;;;;;;6.77;2.23;;;;;;;18.25;78.19;100145.94;5112943;27;20372;-59
2023/07/14 03:13:46;;;;;;;4.33;2.30;;;;;;;18.31;78.03;100150.91;5101051;27;20265;-60
2023/07/14 03:16:18;;;;;;;4.23;1.90;;;;;;;18.36;78.03;100154.19;5113707;27;20273;-59
2023/07/14 03:18:48;;;;;;;4.53;1.70;;;;;;;18.39;77.06;100148.75;5113551;27;20663;-59
2023/07/14 03:21:19;;;;;;;5.50;2.10;;;;;;;18.41;78.69;100141.59;5120383;27;20669;-58
2023/07/14 03:23:49;;;;;;;7.57;2.10;;;;;;;18.32;76.22;100142.91;5102891;27;20341;-57
2023/07/14 03:26:26;;;;;;;4.93;2.00;;;;;;;18.39;77.46;100138.16;5104427;27;20316;-59
2023/07/14 03:28:56;;;;;;;4.63;1.90;;;;;;;18.51;76.18;100139.31;5090780;27;20296;-60
2023/07/14 03:31:29;;;;;;;3.77;2.07;;;;;;;18.57;77.15;100135.50;5090613;27;20284;-60
2023/07/14 03:34:02;;;;;;;6.37;2.10;;;;;;;18.63;74.98;100135.22;5082492;27;20272;-58
2023/07/14 03:36:33;;;;;;;3.73;1.67;;;;;;;18.59;74.84;100128.34;5090280;27;20285;-56
2023/07/14 03:39:25;;;;;;;3.57;1.53;;;;;;;18.59;76.02;100110.66;5078561;27;21737;-59
2023/07/14 03:41:57;;;;;;;2.67;1.60;;;;;;;18.97;75.84;100134.34;5078731;27;20292;-58
2023/07/14 03:44:28;;;;;;;4.87;1.70;;;;;;;18.96;73.75;100133.44;5090307;27;20311;-58
2023/07/14 03:47:02;;;;;;;3.57;1.77;;;;;;;19.09;73.86;100132.78;5080442;27;20286;-58
2023/07/14 03:49:33;;;;;;;4.27;1.80;;;;;;;19.08;73.82;100115.22;5089955;27;20291;-59
2023/07/14 03:52:04;;;;;;;7.87;1.50;;;;;;;19.09;72.68;100123.06;5081460;27;20295;-59
2023/07/14 03:54:34;;;;;;;2.77;1.60;;;;;;;18.85;71.65;100130.53;5090268;27;20563;-61
2023/07/14 03:57:06;;;;;;;10.27;2.00;;;;;;;18.79;73.98;100120.25;5080257;28;20807;-59
2023/07/14 03:59:36;;;;;;;3.40;1.53;;;;;;;18.82;70.36;100125.41;5088579;28;20834;-58
2023/07/14 04:02:08;;;;;;;3.10;1.60;;;;;;;18.84;73.16;100112.91;5078468;28;20742;-59
2023/07/14 04:04:39;;;;;;;1.93;1.47;;;;;;;19.04;70.71;100121.59;5087908;28;20345;-59
2023/07/14 04:07:10;;;;;;;2.77;1.50;;;;;;;19.19;69.83;100115.47;5090440;28;21104;-59
2023/07/14 04:09:40;;;;;;;6.27;1.30;;;;;;;19.16;68.74;100124.44;5082523;28;20577;-61
2023/07/14 04:12:11;;;;;;;3.20;1.30;;;;;;;19.26;69.79;100129.25;5090765;28;20278;-59
2023/07/14 04:14:41;;;;;;;2.23;1.00;;;;;;;19.15;67.42;100132.47;5078806;28;21230;-57
2023/07/14 04:17:13;;;;;;;4.47;1.40;;;;;;;19.10;67.18;100129.22;5090810;28;20282;-60
2023/07/14 04:19:44;;;;;;;1.97;1.03;;;;;;;19.19;66.39;100134.00;5078803;28;20301;-62
2023/07/14 04:22:15;;;;;;;2.30;1.10;;;;;;;19.37;68.82;100127.72;5091234;28;20274;-60
2023/07/14 04:24:45;;;;;;;5.20;1.20;;;;;;;19.49;66.16;100135.91;5087003;28;20352;-61
2023/07/14 04:27:16;;;;;;;1.43;0.70;;;;;;;19.15;60.65;100127.19;5115980;28;20274;-61
2023/07/14 04:29:47;;;;;;;4.03;1.10;;;;;;;19.12;62.62;100159.09;5131965;28;20596;-61
2023/07/14 04:32:19;;;;;;;5.33;1.10;;;;;;;19.00;62.36;100154.50;5134019;28;20602;-61
2023/07/14 04:34:49;;;;;;;5.47;0.93;;;;;;;18.87;60.53;100144.56;5096261;28;20296;-61
2023/07/14 04:37:20;;;;;;;3.23;1.10;;;;;;;18.87;62.92;100139.25;5092060;28;20338;-60
2023/07/14 04:39:51;;;;;;;2.80;0.97;;;;;;;18.95;62.58;100152.09;5098059;28;20289;-61
2023/07/14 04:42:21;;;;;;;1.43;0.83;;;;;;;18.95;62.27;100152.09;5105078;28;20261;-62
2023/07/14 04:44:52;;;;;;;1.60;0.83;;;;;;;19.02;59.40;100149.94;5114669;28;20280;-63
2023/07/14 04:47:24;;;;;;;3.10;0.70;;;;;;;18.94;58.19;100150.34;5092072;28;20273;-62
2023/07/14 04:49:54;;;;;;;2.90;0.67;;;;;;;18.79;59.37;100162.59;5087850;28;20727;-63
2023/07/14 04:52:25;;;;;;;1.43;0.80;;;;;;;18.54;58.26;100163.81;5110720;28;20283;-62
2023/07/14 04:54:55;;;;;;;4.87;0.70;;;;;;;18.35;59.62;100168.38;5112815;28;20352;-62
2023/07/14 04:57:26;;;;;;;3.60;0.80;;;;;;;18.08;60.37;100168.78;5133316;28;20315;-62
2023/07/14 04:59:58;;;;;;;1.13;0.70;;;;;;;17.89;60.65;100165.31;5113196;28;20636;-61
2023/07/14 05:02:30;;;;;;;1.37;0.80;;;;;;;17.89;61.27;100163.53;5092316;27;20308;-60
2023/07/14 05:05:13;;;;;;;1.07;0.70;;;;;;;17.86;60.43;100170.75;5081148;27;20273;-60
2023/07/14 05:07:44;;;;;;;4.27;0.90;;;;;;;17.72;62.11;100178.44;5078362;27;21165;-62
2023/07/14 05:10:14;;;;;;;2.73;0.70;;;;;;;17.59;61.93;100179.03;5093523;27;20719;-61
2023/07/14 05:12:45;;;;;;;0.73;0.67;;;;;;;17.56;60.59;100179.16;5082982;27;20510;-60
2023/07/14 05:15:15;;;;;;;3.43;0.50;;;;;;;17.90;61.57;100169.69;5092794;27;20786;-59
2023/07/14 05:17:49;;;;;;;3.70;0.80;;;;;;;18.22;63.08;100169.88;5079190;27;20297;-58
2023/07/14 05:20:21;;;;;;;3.20;1.00;;;;;;;18.59;62.05;100171.53;5091618;27;20285;-61
2023/07/14 05:22:53;;;;;;;1.43;0.80;;;;;;;18.90;58.70;100175.31;5081599;27;20277;-63
2023/07/14 05:25:24;;;;;;;6.30;1.10;;;;;;;18.94;59.96;100166.25;5093001;27;20313;-59
2023/07/14 05:27:54;;;;;;;1.60;0.93;;;;;;;19.14;60.41;100162.53;5081138;27;20862;-60
2023/07/14 05:30:25;;;;;;;2.20;0.83;;;;;;;19.11;57.80;100139.72;5089725;27;20810;-61
2023/07/14 05:32:57;;;;;;;2.43;0.90;;;;;;;19.31;57.34;100159.84;5081036;27;20304;-60
2023/07/14 05:35:28;;;;;;;2.37;0.73;;;;;;;19.20;57.45;100167.53;5092338;27;20291;-60
2023/07/14 05:37:59;;;;;;;1.40;0.83;;;;;;;19.06;55.36;100164.75;5082375;27;20267;-61
2023/07/14 05:40:31;;;;;;;2.07;0.90;;;;;;;19.09;56.43;100164.56;5093065;27;20280;-61
2023/07/14 05:43:19;;;;;;;1.43;0.70;;;;;;;19.15;56.25;100158.97;5082791;27;20637;-58
2023/07/14 05:45:50;;;;;;;2.50;0.77;;;;;;;19.18;54.82;100153.50;5082655;27;20788;-59
2023/07/14 05:48:23;;;;;;;3.13;0.90;;;;;;;19.09;57.06;100151.34;5091288;27;20369;-59
2023/07/14 05:50:53;;;;;;;2.17;1.00;;;;;;;19.10;58.53;100153.06;5081314;27;20285;-58
2023/07/14 05:53:24;;;;;;;2.50;0.90;;;;;;;19.04;59.78;100145.44;5089207;27;20295;-60
2023/07/14 05:55:55;;;;;;;1.83;0.70;;;;;;;18.84;58.75;100135.91;5079893;27;20788;-60
2023/07/14 05:58:26;;;;;;;1.00;0.60;;;;;;;18.51;59.01;100132.25;5091956;27;20329;-61
2023/07/14 06:00:56;;;;;;;2.50;0.90;;;;;;;18.38;60.18;100136.47;5079270;27;20303;-60
2023/07/14 06:03:29;;;;;;;3.90;0.93;;;;;;;18.30;60.75;100128.06;5091384;27;20356;-61
2023/07/14 06:05:59;;;;;;;2.23;0.80;;;;;;;18.26;62.78;100126.50;5081118;27;20705;-60
2023/07/14 06:08:30;;;;;;;1.83;0.80;;;;;;;18.23;63.15;100137.22;5090742;27;20702;-61
2023/07/14 06:11:00;;;;;;;1.73;1.00;;;;;;;18.13;62.80;100141.28;5081101;27;20287;-58
2023/07/14 06:13:31;;;;;;;4.83;0.70;;;;;;;18.05;62.57;100134.56;5091288;27;20287;-60
2023/07/14 06:16:01;;;;;;;8.40;0.90;;;;;;;17.84;57.86;100154.09;5081475;27;20284;-61
2023/07/14 06:18:34;;;;;;;4.87;0.90;;;;;;;17.77;58.72;100152.66;5091915;27;20758;-61
2023/07/14 06:21:04;;;;;;;5.77;0.70;;;;;;;17.74;56.80;100155.44;5080310;27;20650;-58
2023/07/14 06:23:35;;;;;;;1.80;1.13;;;;;;;17.86;57.31;100165.47;5090937;27;20300;-61
2023/07/14 06:26:05;;;;;;;1.67;0.80;;;;;;;18.14;55.57;100169.41;5078022;27;20339;-59
2023/07/14 06:28:36;;;;;;;1.17;0.80;;;;;;;18.27;55.48;100165.22;5090769;27;20261;-58
2023/07/14 06:31:07;;;;;;;5.10;1.10;;;;;;;18.39;53.74;100159.31;5077997;27;20287;-61
2023/07/14 06:33:40;;;;;;;5.47;1.20;;;;;;;18.42;54.40;100166.25;5090539;27;20290;-62
2023/07/14 06:36:11;;;;;;;2.97;0.90;;;;;;;18.45;53.65;100156.38;5080433;27;20298;-59
2023/07/14 06:38:42;;;;;;;3.80;1.07;;;;;;;18.50;55.49;100149.06;5079655;27;20372;-61
2023/07/14 06:41:12;;;;;;;2.00;0.80;;;;;;;18.61;56.85;100142.38;5091483;27;20281;-62
2023/07/14 06:43:44;;;;;;;6.10;0.90;;;;;;;18.63;57.33;100140.50;5080528;27;20596;-63
2023/07/14 06:46:15;;;;;;;4.20;0.90;;;;;;;18.69;58.84;100140.16;5091084;27;20401;-61
2023/07/14 06:48:47;;;;;;;3.47;0.97;;;;;;;18.66;58.00;100135.03;5079629;27;20277;-62
2023/07/14 06:51:18;;;;;;;6.03;0.97;;;;;;;18.68;59.33;100134.03;5090769;27;20291;-62
2023/07/14 06:53:49;;;;;;;5.27;0.90;;;;;;;18.76;59.91;100125.72;5080225;27;20281;-59
2023/07/14 06:56:20;;;;;;;2.57;0.70;;;;;;;18.83;60.09;100116.50;5091333;27;20374;-61
2023/07/14 06:58:51;;;;;;;3.93;0.77;;;;;;;18.87;59.50;100115.44;5079007;27;20273;-59
2023/07/14 07:01:22;;;;;;;1.37;0.90;;;;;;;18.83;59.06;100110.38;5092826;27;20343;-60
2023/07/14 07:03:54;;;;;;;7.87;1.20;;;;;;;18.52;60.40;100104.88;5081319;27;20345;-58
2023/07/14 07:06:25;;;;;;;1.90;0.90;;;;;;;18.43;61.62;100104.47;5090905;27;20281;-60
2023/07/14 07:08:56;;;;;;;1.27;0.80;;;;;;;18.50;61.53;100093.50;5080772;27;20418;-61
2023/07/14 07:11:27;;;;;;;4.40;0.80;;;;;;;18.45;61.58;100084.94;5092422;27;20274;-60
2023/07/14 07:13:57;;;;;;;3.03;0.90;;;;;;;18.45;61.66;100100.81;5082018;27;20309;-60
2023/07/14 07:16:28;;;;;;;4.63;0.70;;;;;;;18.28;62.15;100077.03;5091036;27;20281;-62
2023/07/14 07:19:01;;;;;;;6.07;0.97;;;;;;;18.38;63.67;100083.56;5080318;27;20278;-59
2023/07/14 07:21:31;;;;;;;4.73;0.80;;;;;;;18.29;64.57;100084.00;5083038;27;20744;-62
2023/07/14 07:24:02;;;;;;;2.60;0.80;;;;;;;17.90;65.12;100082.47;5060231;28;20323;-59
2023/07/14 07:26:33;;;;;;;6.00;1.00;;;;;;;17.45;65.33;100075.81;5070243;28;20339;-59
2023/07/14 07:29:03;;;;;;;1.90;0.70;;;;;;;17.15;65.55;100067.56;5059553;28;20316;-57
2023/07/14 07:31:34;;;;;;;3.70;0.80;;;;;;;16.63;67.08;100007.44;5070010;28;20305;-61
2023/07/14 07:34:08;;;;;;;1.67;0.80;;;;;;;17.02;67.15;100046.13;5058923;28;20281;-62
2023/07/14 07:36:39;;;;;;;6.03;0.90;;;;;;;17.27;67.68;100050.25;5064825;28;20596;-61
2023/07/14 07:39:10;;;;;;;3.80;0.90;;;;;;;17.39;67.24;100049.69;5070766;28;20281;-60
2023/07/14 07:41:41;;;;;;;3.10;0.83;;;;;;;17.56;65.61;100062.94;5061010;28;20285;-61
2023/07/14 07:44:14;;;;;;;5.33;0.93;;;;;;;17.57;64.98;100064.66;5070626;28;20325;-59
2023/07/14 07:46:44;;;;;;;1.57;0.80;;;;;;;17.59;63.77;100069.84;5058638;28;20298;-61
2023/07/14 07:49:17;;;;;;;3.00;0.70;;;;;;;17.57;64.05;100042.63;5069312;28;20278;-60
2023/07/14 07:51:49;;;;;;;2.90;0.70;;;;;;;17.78;63.95;100061.88;5060957;28;20270;-61
2023/07/14 07:54:21;;;;;;;2.33;0.60;;;;;;;17.52;64.21;100013.81;5069593;28;20282;-62
2023/07/14 07:56:51;;;;;;;3.23;0.80;;;;;;;17.97;63.39;100081.22;5058552;28;20278;-62
2023/07/14 07:59:22;;;;;;;2.67;0.70;;;;;;;17.87;62.42;100090.53;5070100;28;20316;-61
2023/07/14 08:01:53;;;;;;;1.57;1.10;;;;;;;17.73;62.64;100100.91;5058609;28;20434;-60
2023/07/14 08:04:26;;;;;;;0.60;0.57;;;;;;;17.75;63.34;100104.34;5067041;28;20289;-57
2023/07/14 08:06:56;;;;;;;1.57;0.80;;;;;;;17.68;61.89;100115.19;5059623;28;20286;-62
2023/07/14 08:09:27;;;;;;;0.70;0.70;;;;;;;17.57;61.72;100109.56;5067475;28;20372;-60
2023/07/14 08:11:58;;;;;;;6.10;1.17;;;;;;;17.24;63.03;100077.66;5059992;28;20280;-61
2023/07/14 08:14:28;;;;;;;3.37;0.90;;;;;;;17.34;64.40;100120.34;5072894;28;20449;-60
2023/07/14 08:16:59;;;;;;;3.10;0.83;;;;;;;17.32;64.75;100117.75;5058169;28;20291;-58
2023/07/14 08:19:31;;;;;;;1.53;0.80;;;;;;;17.43;65.35;100114.66;5068443;28;20282;-60
2023/07/14 08:22:02;;;;;;;3.40;1.20;;;;;;;17.40;64.42;100120.06;5058255;28;20274;-62
2023/07/14 08:24:33;;;;;;;2.83;0.70;;;;;;;17.38;64.39;100108.72;5070259;28;20392;-58
2023/07/14 08:27:03;;;;;;;1.53;0.80;;;;;;;17.29;63.35;100114.41;5058288;28;20770;-58
2023/07/14 08:29:34;;;;;;;4.53;1.10;;;;;;;17.10;63.55;100123.19;5069884;28;20314;-61
2023/07/14 08:32:05;;;;;;;3.20;0.70;;;;;;;17.03;64.17;100119.13;5057177;28;20365;-61
2023/07/14 08:34:37;;;;;;;1.30;0.90;;;;;;;16.96;64.82;100115.91;5065932;28;20281;-58
2023/07/14 08:37:08;;;;;;;6.13;0.83;;;;;;;17.00;65.37;100116.63;5062559;28;20266;-61
2023/07/14 08:39:38;;;;;;;1.23;0.90;;;;;;;17.12;66.18;100131.88;5071617;28;20380;-58
2023/07/14 08:42:23;;;;;;;9.37;0.93;;;;;;;17.00;63.85;100128.03;5061820;28;20277;-60
2023/07/14 08:45:09;;;;;;;6.10;1.33;;;;;;;16.93;64.13;100142.44;5060370;28;20285;-62
2023/07/14 08:47:52;;;;;;;4.73;1.13;;;;;;;16.83;63.75;100129.72;5065593;28;20347;-60
2023/07/14 08:50:28;;;;;;;1.37;1.00;;;;;;;16.67;64.95;100127.69;5073745;28;20292;-62
2023/07/14 08:53:04;;;;;;;2.57;0.90;;;;;;;16.56;65.76;100116.78;5061019;28;20316;-62
2023/07/14 08:55:40;;;;;;;1.67;1.00;;;;;;;16.51;66.62;100129.31;5071986;28;20373;-61
2023/07/14 08:58:16;;;;;;;3.17;0.90;;;;;;;16.56;67.25;100122.06;5061060;28;20365;-62
2023/07/14 09:01:00;;;;;;;2.63;0.87;;;;;;;16.71;67.86;100118.75;5061726;28;20660;-61
2023/07/14 09:03:42;;;;;;;1.50;1.00;;;;;;;16.50;67.15;100122.31;5072803;28;20305;-62
2023/07/14 09:06:26;;;;;;;2.07;0.97;;;;;;;16.24;67.51;100119.00;5060872;28;20286;-62
2023/07/14 09:09:00;;;;;;;1.07;0.77;;;;;;;16.15;68.79;100132.59;5061291;28;20282;-62
2023/07/14 09:11:48;;;;;;;1.00;0.90;;;;;;;16.04;69.29;100097.91;5075370;28;20296;-63
2023/07/14 09:14:30;;;;;;;;;;;;;;;16.18;68.75;100121.91;5073462;28;20433;-62
2023/07/14 09:17:11;;;;;;;3.47;0.90;;;;;;;16.05;69.57;100115.41;5062481;28;20074;-61
2023/07/14 09:19:57;;;;;;;1.83;1.10;;;;;;;16.01;69.88;100124.38;5060881;28;20297;-59
2023/07/14 09:22:39;;;;;;;2.43;1.20;;;;;;;16.04;69.98;100129.53;5071975;28;20620;-60
2023/07/14 09:25:19;;;;;;;15.53;1.50;;;;;;;16.08;70.11;100131.13;5059978;28;20298;-62
2023/07/14 09:27:53;;;;;;;3.57;1.00;;;;;;;16.23;70.26;100134.91;5061885;28;20282;-61
2023/07/14 09:30:28;;;;;;;2.90;1.03;;;;;;;16.11;70.14;100131.00;5072110;28;20289;-60
2023/07/14 09:33:04;;;;;;;2.37;1.20;;;;;;;15.72;70.21;100077.22;5059577;28;20333;-62
2023/07/14 09:35:35;;;;;;;1.83;0.90;;;;;;;16.13;69.64;100150.25;5072249;28;20323;-58
2023/07/14 09:38:19;;;;;;;2.83;1.30;;;;;;;15.90;69.37;100137.97;5061228;28;20300;-62
2023/07/14 09:40:55;;;;;;;1.63;1.10;;;;;;;15.49;69.18;100114.97;5062993;28;20281;-61
2023/07/14 09:43:25;;;;;;;3.90;1.37;;;;;;;15.39;70.04;100136.44;5071768;28;20294;-61
2023/07/14 09:45:58;;;;;;;3.63;1.00;;;;;;;15.46;70.41;100164.28;5060230;28;20433;-60
2023/07/14 09:48:42;;;;;;;0.90;0.80;;;;;;;15.08;70.89;100122.69;5071691;28;20839;-61
2023/07/14 09:51:17;;;;;;;3.53;1.17;;;;;;;15.30;71.41;100166.59;5060637;28;20304;-62
2023/07/14 09:54:07;;;;;;;3.23;1.10;;;;;;;15.30;71.45;100161.34;5060250;28;20320;-62
2023/07/14 09:56:45;;;;;;;1.77;1.10;;;;;;;15.22;71.54;100160.78;5061431;28;20758;-61
2023/07/14 09:59:21;;;;;;;5.67;1.03;;;;;;;15.04;72.32;100150.00;5070378;28;20393;-62
2023/07/14 10:01:56;;;;;;;6.63;1.10;;;;;;;14.97;72.76;100172.19;5059303;28;20918;-62
2023/07/14 10:04:30;;;;;;;2.80;1.10;;;;;;;14.78;73.78;100165.88;5072140;28;20370;-62
2023/07/14 10:07:23;;;;;;;3.60;1.30;;;;;;;14.60;74.77;100172.63;5059206;28;20304;-61
2023/07/14 10:10:08;;;;;;;3.50;1.50;;;;;;;14.16;76.19;100167.94;5060907;28;20347;-61
2023/07/14 10:12:42;;;;;;;4.27;1.50;;;;;;;13.98;78.13;100173.78;5066811;28;20349;-60
2023/07/14 10:15:26;;;;;;;2.90;1.90;;;;;;;13.77;79.69;100176.16;5070359;28;20960;-59
2023/07/14 10:17:59;;;;;;;2.47;1.50;;;;;;;13.62;81.19;100176.63;5060841;28;20351;-61
2023/07/14 10:20:31;;;;;;;4.80;1.60;;;;;;;13.25;82.26;100143.56;5072380;28;20351;-61
2023/07/14 10:23:03;;;;;;;5.53;1.70;;;;;;;13.30;83.54;100174.94;5059431;28;20351;-62
2023/07/14 10:25:39;;;;;;;5.03;1.43;;;;;;;13.19;84.57;100193.59;5071020;28;20659;-61
2023/07/14 10:28:14;;;;;;;4.17;1.80;;;;;;;13.11;85.44;100195.59;5062492;28;20992;-58
2023/07/14 10:30:58;;;;;;;3.60;1.60;;;;;;;12.98;86.53;100188.94;5061476;28;20592;-60
2023/07/14 10:33:44;;;;;;;3.20;1.97;;;;;;;12.12;87.32;100073.28;5070516;28;20385;-59
2023/07/14 10:36:20;;;;;;;2.00;1.60;;;;;;;12.65;88.69;100192.41;5059875;28;20305;-64
2023/07/14 10:38:58;;;;;;;3.60;1.73;;;;;;;12.56;89.81;100182.19;5058713;28;20289;-60
2023/07/14 10:41:34;;;;;;;3.88;2.15;;;;;;;12.21;90.48;100134.16;5072378;28;20928;-63
2023/07/14 10:44:24;;;;;;;3.67;2.00;;;;;;;12.50;90.98;100193.69;5062003;28;20072;-61
2023/07/14 10:47:00;;;;;;;5.22;2.75;;;;;;;12.40;92.00;100192.19;5066559;28;20059;-63
2023/07/14 10:49:40;;;;;;;5.53;2.20;;;;;;;12.37;93.39;100191.41;5074258;28;20044;-63
2023/07/14 10:52:17;;;;;;;4.45;1.70;;;;;;;12.18;94.32;100164.78;5064035;28;20035;-63
2023/07/14 10:54:55;;;;;;;6.45;1.80;;;;;;;12.18;94.71;100188.38;5074511;28;20371;-63
2023/07/14 10:57:44;;;;;;;3.40;2.05;;;;;;;12.11;95.83;100189.44;5069787;28;20048;-62
2023/07/14 11:00:38;;;;;;;5.60;1.90;;;;;;;11.88;96.69;100162.00;5059268;28;20136;-63
2023/07/14 11:03:32;;;;;;;2.78;1.60;;;;;;;11.80;97.27;100166.53;5057047;28;20044;-62
2023/07/14 11:06:10;;;;;;;8.27;1.98;;;;;;;11.79;98.16;100191.00;5058714;28;20052;-63
2023/07/14 11:08:50;;;;;;;3.42;2.17;;;;;;;11.64;99.36;100195.69;5056391;28;20473;-62
2023/07/14 11:11:28;;;;;;;3.95;2.58;;;;;;;11.53;100.00;100202.91;5068632;28;20048;-60
2023/07/14 11:14:14;;;;;;;6.28;2.60;;;;;;;11.48;100.00;100212.59;5061126;28;20062;-61
2023/07/14 11:16:54;;;;;;;12.07;5.85;;;;;;;11.42;100.00;100220.56;5057751;28;20040;-60
2023/07/14 11:19:43;;;;;;;9.73;5.65;;;;;;;11.26;100.00;100216.53;5069701;28;20056;-61
2023/07/14 11:22:29;;;;;;;15.80;10.23;;;;;;;11.09;100.00;100228.22;5061193;28;20047;-62
2023/07/14 11:25:13;;;;;;;52.40;34.47;;;;;;;10.92;100.00;100219.81;5057878;28;20980;-60
2023/07/14 11:27:55;;;;;;;33.63;23.33;;;;;;;10.74;100.00;100206.19;5057662;28;20048;-61
2023/07/14 11:30:34;;;;;;;19.05;10.45;;;;;;;10.75;100.00;100223.59;5068700;28;20052;-60
2023/07/14 11:33:14;;;;;;;8.48;5.72;;;;;;;10.67;100.00;100225.47;5056456;28;20497;-59
2023/07/14 11:35:57;;;;;;;7.60;3.00;;;;;;;10.70;100.00;100235.00;5057792;28;20092;-60
2023/07/14 11:38:36;;;;;;;8.75;3.78;;;;;;;10.59;100.00;100229.97;5069020;28;20059;-63
2023/07/14 11:41:08;;;;;;;15.73;3.47;;;;;;;10.36;100.00;100215.56;5058872;28;20104;-60
2023/07/14 11:43:40;;;;;;;7.90;2.45;;;;;;;10.32;100.00;100223.47;5064997;28;20058;-60
2023/07/14 11:46:19;;;;;;;5.20;2.03;;;;;;;10.31;100.00;100221.75;5068652;28;20398;-62
2023/07/14 11:49:05;;;;;;;3.60;1.70;;;;;;;10.29;100.00;100224.38;5058431;28;20039;-62
2023/07/14 11:51:53;;;;;;;3.17;1.83;;;;;;;10.34;100.00;100225.16;5069845;28;20134;-59
2023/07/14 11:54:27;;;;;;;12.68;1.80;;;;;;;10.26;100.00;100213.94;5068269;28;20113;-62
2023/07/14 11:57:04;;;;;;;9.40;2.47;;;;;;;9.69;100.00;100122.59;5058215;28;20167;-62